首页
METAR-TAF:

METAR-TAF

机场 :

卡罗维发利, 捷克共和国

纬度: 50-12N, 经度: 012-55E, 海拔: 603米

当前天气观测

该预报发布于25分钟前的14:00 UTC
风速7节,风向西,在西南西转西北之间变化
温度 3°C
湿度 75%
气压 1023 hPa
能见度10公里或以上
散云层高于2100英尺

METAR: LKKV 181400Z 26007KT 230V290 9999 SCT021 03/M01 Q1023

时间: 15:25 (14:25 UTC)

预报

该预报发布于3小时和25分钟前的11:00 UTC
预报有效从18日的 12点(UTC)到 19日的 18点(UTC)
风速8节,风向西
能见度10公里或以上
多云层高于1500英尺
短暂存在
从 18日的 12点(UTC)到 18日的 18点(UTC)
能見度: 5000
散云层高于500英尺
多云层高于1000英尺
轻雾
短暂存在
从 18日的 20点(UTC)到 19日的 06点(UTC)
能見度: 2500
多云层高于500英尺
小雪, 轻雾
几率 30% :
短暂存在
从 19日的 06点(UTC)到 19日的 18点(UTC)
能見度: 1500
阴天层高于300英尺

TAF: LKKV 181100Z 1812/1918 26008KT 9999 BKN015 TEMPO 1812/1818 5000 BR SCT005 BKN010 TEMPO 1820/1906 2500 -SN BR BKN005 PROB30 TEMPO 1906/1918 1500 SN OVC003

超过4000个机场的气象观测和天气预报(METAR&TAF报告)。

可查询的气象台以黄色和红色小点在地图上表示。

将鼠标移到小点上方,可查看气象台名称。

然后点击查看天气观测和预报。

如需切换地图:点击带黑十字的绿色按钮放大地图;点击带横线的绿色按钮缩小地图;或者点击绿色箭头查看邻近地区的地图。


METAR-TAF: